Time;durP1;ratioP1;P1;durP2;ratioP2;P2;SDS_P1;SDS_P2;PMS_P1;PMS_P2;Temp;Humidity;BMP_temperature;BMP_pressure;BME280_temperature;BME280_humidity;BME280_pressure;Samples;Min_cycle;Max_cycle;Signal;HPM_P1;HPM_P2
2022/10/17 00:01:00;;;;;;;27.40;16.37;;;;;;;17.47;100.00;99750.91;4285965;33;20058;-77
2022/10/17 00:03:34;;;;;;;25.30;16.33;;;;;;;17.29;100.00;99720.47;4290883;33;20037;-77
2022/10/17 00:10:00;;;;;;;29.17;15.30;;;;;;;17.46;100.00;99757.47;4292308;33;20103;-77
2022/10/17 00:12:27;;;;;;;22.50;15.05;;;;;;;17.06;100.00;99709.13;4303682;33;20163;-75
2022/10/17 00:14:54;;;;;;;26.05;15.63;;;;;;;17.46;100.00;99773.78;4308014;33;20029;-76
2022/10/17 00:17:20;;;;;;;28.40;15.80;;;;;;;17.50;100.00;99783.81;4286127;33;20153;-76
2022/10/17 00:19:46;;;;;;;28.08;16.33;;;;;;;17.21;100.00;99781.72;4279102;33;20489;-76
2022/10/17 00:22:13;;;;;;;33.88;16.50;;;;;;;17.33;100.00;99737.91;4277026;33;20488;-76
2022/10/17 00:24:39;;;;;;;29.55;15.40;;;;;;;17.38;100.00;99748.75;4278083;33;20489;-76
2022/10/17 00:27:06;;;;;;;31.08;15.80;;;;;;;17.22;100.00;99745.25;4277990;33;20091;-78
2022/10/17 00:29:32;;;;;;;28.23;15.73;;;;;;;17.43;100.00;99784.12;4278966;33;20340;-76
2022/10/17 00:31:59;;;;;;;29.12;15.52;;;;;;;17.39;100.00;99747.69;4278140;33;20084;-76
2022/10/17 00:34:28;;;;;;;27.05;15.80;;;;;;;17.35;100.00;99737.62;4275903;33;20381;-77
2022/10/17 00:36:56;;;;;;;25.90;14.93;;;;;;;16.96;100.00;99763.56;4277980;33;20069;-76
2022/10/17 00:39:24;;;;;;;25.73;15.13;;;;;;;17.03;100.00;99777.69;4279329;33;20063;-77
2022/10/17 00:41:50;;;;;;;27.02;15.20;;;;;;;16.94;100.00;99775.78;4277520;33;20082;-77
2022/10/17 00:44:29;;;;;;;26.62;14.63;;;;;;;17.08;100.00;99743.41;4279121;33;20034;-79
2022/10/17 00:47:06;;;;;;;31.80;15.55;;;;;;;17.27;100.00;99785.25;4267714;33;20066;-77
2022/10/17 00:49:37;;;;;;;27.73;16.67;;;;;;;17.43;100.00;99772.44;4308030;33;20033;-76
2022/10/17 00:52:09;;;;;;;29.12;16.62;;;;;;;17.26;100.00;99740.06;4309065;33;20037;-78
2022/10/17 00:54:44;;;;;;;38.35;15.80;;;;;;;16.79;100.00;99733.09;4311127;33;20059;-77
2022/10/17 00:57:12;;;;;;;30.75;16.17;;;;;;;16.85;100.00;99702.06;4310937;33;20423;-77
2022/10/17 00:59:41;;;;;;;30.67;15.00;;;;;;;17.37;100.00;99771.63;4312145;33;20070;-77
2022/10/17 01:02:12;;;;;;;23.70;15.05;;;;;;;17.41;100.00;99764.53;4312708;33;20051;-78
2022/10/17 01:04:41;;;;;;;28.77;16.10;;;;;;;17.20;100.00;99727.56;4313525;33;20053;-77
2022/10/17 01:07:08;;;;;;;21.73;15.18;;;;;;;17.20;100.00;99762.94;4311815;33;20387;-76
2022/10/17 01:09:35;;;;;;;27.25;15.05;;;;;;;17.15;100.00;99722.16;4336702;33;20033;-75
2022/10/17 01:12:22;;;;;;;20.83;14.30;;;;;;;17.02;100.00;99762.47;4325433;33;20047;-76
2022/10/17 01:15:00;;;;;;;28.98;15.07;;;;;;;17.03;100.00;99768.72;4296540;33;20143;-75
2022/10/17 01:18:05;;;;;;;26.65;14.48;;;;;;;16.57;100.00;99745.03;4309925;33;20048;-76
2022/10/17 01:21:08;;;;;;;27.13;15.90;;;;;;;16.76;100.00;99780.66;4282502;33;20458;-75
2022/10/17 01:24:00;;;;;;;32.83;16.33;;;;;;;16.70;100.00;99766.28;4282853;33;20337;-75
2022/10/17 01:26:43;;;;;;;26.45;14.50;;;;;;;16.80;100.00;99778.22;4305850;33;20045;-77
2022/10/17 01:29:25;;;;;;;26.67;16.17;;;;;;;16.10;100.00;99718.94;4306963;33;20037;-76
2022/10/17 01:32:00;;;;;;;30.42;16.50;;;;;;;16.51;100.00;99735.25;4295833;33;20032;-76
2022/10/17 01:34:31;;;;;;;27.55;15.88;;;;;;;16.39;100.00;99761.91;4294801;33;20045;-78
2022/10/17 01:37:07;;;;;;;27.52;15.10;;;;;;;16.13;100.00;99729.25;4298752;33;20063;-77
2022/10/17 01:39:45;;;;;;;31.48;17.12;;;;;;;16.09;100.00;99758.03;4295597;33;20037;-76
2022/10/17 01:42:18;;;;;;;28.55;15.88;;;;;;;16.36;100.00;99763.25;4281837;33;20077;-76
2022/10/17 01:45:00;;;;;;;23.50;15.10;;;;;;;16.09;100.00;99709.97;4280871;33;20094;-75
2022/10/17 01:47:30;;;;;;;28.73;16.45;;;;;;;16.33;100.00;99772.75;4294175;33;20066;-78
2022/10/17 01:50:03;;;;;;;28.08;16.58;;;;;;;16.31;100.00;99774.13;4310006;33;20484;-77
2022/10/17 01:52:34;;;;;;;;;;;;;;;15.97;100.00;99742.81;4309808;33;20102;-76
2022/10/17 01:55:29;;;;;;;29.85;14.20;;;;;;;16.22;100.00;99797.47;4310653;33;19942;-76
2022/10/17 01:58:02;;;;;;;26.48;16.08;;;;;;;15.83;100.00;99738.97;4310939;33;20032;-76
2022/10/17 02:00:31;;;;;;;29.83;15.73;;;;;;;16.38;100.00;99785.53;4307714;33;20049;-77
2022/10/17 02:03:01;;;;;;;23.65;14.87;;;;;;;16.14;100.00;99755.34;4310594;33;20049;-76
2022/10/17 02:05:31;;;;;;;32.92;16.35;;;;;;;15.94;100.00;99729.78;4310662;33;20498;-76
2022/10/17 02:07:58;;;;;;;27.60;15.45;;;;;;;16.29;100.00;99743.66;4310925;33;20028;-77
2022/10/17 02:10:53;;;;;;;31.33;16.50;;;;;;;16.62;100.00;99788.53;4308250;33;20070;-77
2022/10/17 02:13:37;;;;;;;37.88;16.62;;;;;;;16.44;100.00;99789.09;4310195;33;20064;-76
2022/10/17 02:16:34;;;;;;;29.52;16.60;;;;;;;16.25;100.00;99737.97;4293593;33;20049;-75
2022/10/17 02:19:27;;;;;;;28.33;15.35;;;;;;;16.22;100.00;99776.53;4296323;33;20469;-75
2022/10/17 02:22:18;;;;;;;25.10;16.12;;;;;;;15.85;100.00;99785.69;4297873;33;20065;-76
2022/10/17 02:24:47;;;;;;;29.00;15.50;;;;;;;16.21;100.00;99780.34;4297996;33;20452;-77
2022/10/17 02:27:38;;;;;;;32.38;15.45;;;;;;;15.82;100.00;99733.81;4296810;33;20045;-76
2022/10/17 02:30:22;;;;;;;23.73;14.15;;;;;;;15.55;100.00;99751.84;4296400;33;20360;-77
2022/10/17 02:32:56;;;;;;;33.30;15.40;;;;;;;15.69;100.00;99756.81;4298095;33;20340;-76
2022/10/17 02:35:28;;;;;;;25.95;15.80;;;;;;;16.08;100.00;99789.00;4297227;33;20066;-76
2022/10/17 02:37:56;;;;;;;26.90;14.40;;;;;;;15.74;100.00;99743.25;4297274;33;20048;-75
2022/10/17 02:40:23;;;;;;;26.33;16.05;;;;;;;15.82;100.00;99745.47;4294631;33;20037;-76
2022/10/17 02:42:53;;;;;;;26.48;16.70;;;;;;;16.12;100.00;99792.81;4298576;33;20371;-76
2022/10/17 02:45:23;;;;;;;27.08;15.18;;;;;;;16.22;100.00;99787.41;4296838;33;20045;-77
2022/10/17 02:47:59;;;;;;;26.40;15.80;;;;;;;16.13;100.00;99789.00;4295017;33;20083;-79
2022/10/17 02:50:51;;;;;;;27.15;14.55;;;;;;;16.19;100.00;99812.38;4298357;33;20049;-77
2022/10/17 02:53:31;;;;;;;26.42;15.23;;;;;;;16.18;100.00;99813.50;4310750;33;20066;-76
2022/10/17 02:56:05;;;;;;;27.33;14.38;;;;;;;16.29;100.00;99807.00;4297776;33;20053;-76
2022/10/17 02:58:35;;;;;;;26.70;14.93;;;;;;;16.13;100.00;99783.56;4304730;33;20037;-76
2022/10/17 03:01:03;;;;;;;25.77;15.20;;;;;;;16.34;100.00;99807.00;4338021;33;20369;-74
2022/10/17 03:03:31;;;;;;;25.10;15.20;;;;;;;16.31;100.00;99818.41;4336037;33;20087;-75
2022/10/17 03:05:59;;;;;;;29.45;16.35;;;;;;;16.59;100.00;99813.53;4337730;33;20074;-76
2022/10/17 03:08:25;;;;;;;35.13;14.63;;;;;;;16.23;100.00;99782.81;4338820;33;20449;-76
2022/10/17 03:10:58;;;;;;;27.75;15.02;;;;;;;16.65;100.00;99820.63;4338256;33;20425;-78
2022/10/17 03:13:28;;;;;;;28.60;14.15;;;;;;;16.20;100.00;99827.63;4337273;33;20062;-80
2022/10/17 03:15:57;;;;;;;29.45;15.38;;;;;;;16.14;100.00;99818.63;4335403;33;20095;-77
2022/10/17 03:18:24;;;;;;;29.42;14.75;;;;;;;16.13;100.00;99832.47;4339336;33;20052;-77
2022/10/17 03:20:51;;;;;;;27.55;15.65;;;;;;;16.30;100.00;99835.78;4338424;33;20028;-77
2022/10/17 03:23:18;;;;;;;25.05;15.80;;;;;;;16.23;100.00;99808.06;4337638;33;20051;-77
2022/10/17 03:25:44;;;;;;;26.67;14.95;;;;;;;16.09;100.00;99836.81;4335383;33;20041;-77
2022/10/17 03:28:13;;;;;;;23.15;14.07;;;;;;;15.97;100.00;99797.13;4339114;33;20163;-78
2022/10/17 03:30:39;;;;;;;29.10;14.07;;;;;;;16.14;100.00;99823.25;4338022;33;20096;-76
2022/10/17 03:33:06;;;;;;;30.80;14.82;;;;;;;16.10;100.00;99827.59;4313155;33;20066;-78
2022/10/17 03:35:33;;;;;;;28.40;16.45;;;;;;;16.09;100.00;99825.97;4311436;33;20120;-80
2022/10/17 03:37:59;;;;;;;28.75;15.13;;;;;;;15.93;100.00;99782.44;4293507;33;20474;-78
2022/10/17 03:40:26;;;;;;;27.02;14.98;;;;;;;16.16;100.00;99823.78;4295465;33;20123;-78
2022/10/17 03:42:54;;;;;;;24.48;13.55;;;;;;;15.85;100.00;99815.53;4290075;33;20037;-77
2022/10/17 03:45:20;;;;;;;31.52;15.20;;;;;;;16.05;100.00;99830.28;4293722;33;20065;-77
2022/10/17 03:47:47;;;;;;;26.48;13.48;;;;;;;16.15;100.00;99827.59;4292612;33;20049;-79
2022/10/17 03:50:14;;;;;;;27.52;13.77;;;;;;;15.98;100.00;99836.78;4280900;33;20197;-76
2022/10/17 03:52:45;;;;;;;22.08;15.15;;;;;;;16.02;100.00;99841.66;4280683;33;20075;-76
2022/10/17 03:55:13;;;;;;;28.17;14.27;;;;;;;15.64;100.00;99781.22;4280539;33;20041;-78
2022/10/17 03:57:40;;;;;;;22.33;12.30;;;;;;;15.49;100.00;99790.91;4280667;33;20080;-78
2022/10/17 04:00:07;;;;;;;26.92;13.90;;;;;;;15.79;100.00;99832.87;4277967;33;20360;-80
2022/10/17 04:02:40;;;;;;;26.23;13.25;;;;;;;15.74;100.00;99798.34;4308306;33;20490;-76
2022/10/17 04:05:07;;;;;;;23.58;13.10;;;;;;;15.61;100.00;99793.41;4307851;33;20378;-76
2022/10/17 04:07:36;;;;;;;24.50;14.63;;;;;;;16.00;100.00;99843.84;4299649;33;20048;-78
2022/10/17 04:10:04;;;;;;;21.85;13.38;;;;;;;16.14;100.00;99844.97;4298894;33;20386;-78
2022/10/17 04:12:31;;;;;;;26.27;14.57;;;;;;;16.31;100.00;99842.88;4302022;33;20945;-77
2022/10/17 04:14:58;;;;;;;27.90;14.15;;;;;;;16.41;100.00;99860.28;4294183;33;20149;-77
2022/10/17 04:17:24;;;;;;;28.27;14.85;;;;;;;16.06;100.00;99849.03;4293956;33;20040;-78
2022/10/17 04:19:52;;;;;;;21.58;14.15;;;;;;;15.54;100.00;99842.53;4299458;33;20055;-79
2022/10/17 04:22:19;;;;;;;24.42;14.15;;;;;;;15.79;100.00;99854.63;4294726;33;20061;-77
2022/10/17 04:24:46;;;;;;;24.33;12.82;;;;;;;15.93;100.00;99815.03;4293759;33;20056;-76
2022/10/17 04:27:13;;;;;;;28.48;15.23;;;;;;;15.79;100.00;99822.03;4294453;33;20058;-75
2022/10/17 04:29:39;;;;;;;20.77;13.13;;;;;;;15.97;100.00;99853.34;4278337;33;20041;-76
2022/10/17 04:32:07;;;;;;;20.42;13.27;;;;;;;15.88;100.00;99825.87;4250310;33;20461;-77
2022/10/17 04:34:33;;;;;;;27.15;14.93;;;;;;;15.80;100.00;99823.69;4253322;33;20038;-77
2022/10/17 04:37:00;;;;;;;24.37;14.35;;;;;;;16.49;100.00;99870.63;4261882;33;20045;-76
2022/10/17 04:39:27;;;;;;;34.20;16.98;;;;;;;16.21;100.00;99861.88;4268109;33;20034;-77
2022/10/17 04:41:55;;;;;;;28.05;15.38;;;;;;;16.66;100.00;99871.22;4267240;33;20038;-75
2022/10/17 04:44:22;;;;;;;24.45;13.10;;;;;;;16.01;100.00;99821.84;4266131;33;20030;-76
2022/10/17 04:46:50;;;;;;;33.92;13.68;;;;;;;16.17;100.00;99860.75;4268238;33;20097;-75
2022/10/17 04:49:16;;;;;;;22.98;13.60;;;;;;;15.97;100.00;99856.87;4255440;33;20034;-76
2022/10/17 04:51:43;;;;;;;21.40;12.68;;;;;;;15.63;100.00;99840.13;4262032;33;20076;-76
2022/10/17 04:54:09;;;;;;;19.60;13.02;;;;;;;15.52;100.00;99806.66;4260531;33;20476;-78
2022/10/17 04:56:46;;;;;;;25.92;12.73;;;;;;;15.62;100.00;99831.16;4253495;33;20058;-76
2022/10/17 04:59:12;;;;;;;24.60;12.82;;;;;;;15.42;100.00;99839.19;4253068;33;20048;-76
2022/10/17 05:01:39;;;;;;;23.75;12.98;;;;;;;15.54;100.00;99837.09;4271257;33;20050;-76
2022/10/17 05:04:06;;;;;;;22.17;13.60;;;;;;;15.19;100.00;99786.13;4276276;33;20037;-77
2022/10/17 05:06:33;;;;;;;21.92;12.73;;;;;;;15.50;100.00;99814.25;4269770;33;20038;-77
2022/10/17 05:09:02;;;;;;;19.08;12.23;;;;;;;15.79;100.00;99827.47;4268304;33;20042;-76
2022/10/17 05:11:31;;;;;;;23.85;13.62;;;;;;;15.98;100.00;99806.88;4273758;33;20041;-77
2022/10/17 05:14:01;;;;;;;21.30;13.48;;;;;;;15.76;100.00;99833.37;4295319;33;20107;-78
2022/10/17 05:16:35;;;;;;;22.62;13.32;;;;;;;15.98;100.00;99852.25;4282438;33;20087;-76
2022/10/17 05:19:06;;;;;;;25.60;12.43;;;;;;;16.36;100.00;99852.94;4282845;33;20045;-75
2022/10/17 05:21:36;;;;;;;29.45;13.77;;;;;;;15.96;100.00;99849.81;4282019;33;20409;-76
2022/10/17 05:24:06;;;;;;;21.05;11.52;;;;;;;15.95;100.00;99815.56;4279565;33;20026;-76
2022/10/17 05:26:34;;;;;;;21.33;11.80;;;;;;;16.21;100.00;99861.88;4281446;33;20050;-76
2022/10/17 05:29:04;;;;;;;21.53;11.73;;;;;;;16.27;100.00;99882.50;4269858;33;20060;-77
2022/10/17 05:31:32;;;;;;;24.35;12.93;;;;;;;16.05;100.00;99857.44;4245266;33;20178;-76
2022/10/17 05:34:02;;;;;;;26.85;12.73;;;;;;;16.24;100.00;99866.78;4250216;33;20383;-77
2022/10/17 05:36:29;;;;;;;24.15;13.50;;;;;;;16.33;100.00;99892.31;4286548;33;20073;-76
2022/10/17 05:38:58;;;;;;;23.58;11.60;;;;;;;16.24;100.00;99883.06;4279866;33;20055;-76
2022/10/17 05:41:25;;;;;;;27.10;11.90;;;;;;;16.21;100.00;99899.91;4281112;33;20033;-75
2022/10/17 05:43:52;;;;;;;16.00;11.05;;;;;;;16.14;100.00;99910.19;4283219;33;20057;-76
2022/10/17 05:46:19;;;;;;;29.25;11.55;;;;;;;16.07;100.00;99871.59;4292678;33;20040;-77
2022/10/17 05:48:45;;;;;;;18.33;11.38;;;;;;;15.98;100.00;99910.09;4284946;33;20050;-76
2022/10/17 05:51:12;;;;;;;18.45;12.18;;;;;;;15.60;100.00;99868.62;4301427;33;20057;-75
2022/10/17 05:53:40;;;;;;;29.23;13.90;;;;;;;16.11;100.00;99916.94;4311549;33;20040;-81
2022/10/17 05:56:11;;;;;;;20.95;12.35;;;;;;;16.07;100.00;99921.31;4308236;33;20050;-86
2022/10/17 05:58:44;;;;;;;34.20;13.40;;;;;;;16.15;100.00;99923.50;4288424;33;20372;-83
2022/10/17 06:01:14;;;;;;;27.92;12.15;;;;;;;16.22;100.00;99911.59;4278787;33;20034;-81
2022/10/17 06:03:41;;;;;;;30.58;12.50;;;;;;;16.00;100.00;99909.03;4279585;33;20220;-83
2022/10/17 06:06:10;;;;;;;21.98;13.25;;;;;;;16.14;100.00;99905.56;4278802;33;20062;-83
2022/10/17 06:08:39;;;;;;;30.20;12.15;;;;;;;16.03;100.00;99898.44;4282500;33;20075;-83
2022/10/17 06:11:07;;;;;;;20.75;11.30;;;;;;;15.66;100.00;99860.50;4280359;33;20049;-85
2022/10/17 06:13:33;;;;;;;21.02;11.52;;;;;;;15.70;100.00;99900.44;4309729;33;20029;-84
2022/10/17 06:16:01;;;;;;;25.98;12.40;;;;;;;15.77;100.00;99865.75;4328774;33;20083;-85
2022/10/17 06:18:29;;;;;;;23.92;11.60;;;;;;;16.36;100.00;99895.59;4338866;33;20048;-87
2022/10/17 06:21:05;;;;;;;23.02;11.55;;;;;;;16.23;100.00;99865.13;4309166;33;20059;-84
2022/10/17 06:23:33;;;;;;;22.30;11.70;;;;;;;16.62;100.00;99905.44;4304663;33;20041;-86
2022/10/17 06:26:01;;;;;;;23.67;11.32;;;;;;;16.44;100.00;99920.34;4292382;33;20054;-83
2022/10/17 06:28:28;;;;;;;22.48;12.27;;;;;;;16.36;100.00;99910.00;4292111;33;20045;-85
2022/10/17 06:30:56;;;;;;;18.37;11.55;;;;;;;16.18;100.00;99897.72;4287632;33;20041;-85
2022/10/17 06:33:23;;;;;;;27.35;11.73;;;;;;;16.48;100.00;99890.72;4291976;33;20168;-83
2022/10/17 06:35:52;;;;;;;21.02;11.07;;;;;;;16.33;100.00;99896.94;4305253;33;20152;-84
2022/10/17 06:38:20;;;;;;;23.00;11.88;;;;;;;16.50;100.00;99935.59;4297333;33;20041;-84
2022/10/17 06:40:49;;;;;;;33.30;11.80;;;;;;;16.70;100.00;99915.81;4309055;33;20079;-83
2022/10/17 06:43:15;;;;;;;28.38;11.45;;;;;;;16.05;100.00;99895.47;4307611;33;20037;-83
2022/10/17 06:45:47;;;;;;;16.02;10.25;;;;;;;16.55;100.00;99898.66;4279580;33;20148;-83
2022/10/17 06:48:14;;;;;;;19.80;10.80;;;;;;;17.05;100.00;99952.34;4272400;33;20075;-87
2022/10/17 06:50:41;;;;;;;21.77;12.00;;;;;;;16.51;100.00;99885.59;4262877;33;20700;-85
2022/10/17 06:53:08;;;;;;;23.42;12.65;;;;;;;16.44;100.00;99892.38;4290135;33;20541;-85
2022/10/17 06:55:37;;;;;;;16.20;9.90;;;;;;;16.59;100.00;99925.00;4293617;33;20090;-84
2022/10/17 06:58:04;;;;;;;17.67;11.23;;;;;;;17.04;100.00;99958.88;4294375;33;20364;-83
2022/10/17 07:00:32;;;;;;;24.08;12.00;;;;;;;17.34;100.00;99970.06;4296063;33;20057;-86
2022/10/17 07:02:58;;;;;;;36.78;11.68;;;;;;;17.09;100.00;99968.97;4303919;33;20187;-83
2022/10/17 07:05:25;;;;;;;23.45;10.68;;;;;;;17.03;100.00;99970.84;4293237;33;20074;-84
2022/10/17 07:07:51;;;;;;;27.83;10.98;;;;;;;17.00;100.00;99918.88;4301096;33;20037;-83
2022/10/17 07:10:18;;;;;;;31.40;11.48;;;;;;;16.88;100.00;99958.03;4296077;33;20463;-83
2022/10/17 07:12:45;;;;;;;22.33;11.55;;;;;;;17.28;100.00;99965.69;4268868;33;20071;-82
2022/10/17 07:15:12;;;;;;;26.92;12.02;;;;;;;17.48;100.00;99954.00;4268603;33;20067;-82
2022/10/17 07:17:39;;;;;;;23.90;11.48;;;;;;;17.49;100.00;99961.91;4263024;33;20038;-82
2022/10/17 07:20:06;;;;;;;21.85;12.02;;;;;;;17.55;100.00;99921.84;4277227;33;20393;-84
2022/10/17 07:22:35;;;;;;;29.83;11.77;;;;;;;17.46;100.00;99927.06;4259357;33;20042;-85
2022/10/17 07:25:01;;;;;;;24.85;11.40;;;;;;;17.30;100.00;99967.06;4248548;33;20757;-83
2022/10/17 07:27:29;;;;;;;21.23;12.23;;;;;;;17.30;100.00;99953.47;4264123;33;20055;-83
2022/10/17 07:29:58;;;;;;;20.42;11.73;;;;;;;17.64;100.00;99952.91;4250418;33;20385;-82
2022/10/17 07:32:25;;;;;;;18.65;11.43;;;;;;;17.15;100.00;99950.72;4261476;33;20042;-83
2022/10/17 07:34:52;;;;;;;20.92;11.18;;;;;;;17.46;100.00;99928.97;4269063;33;20115;-84
2022/10/17 07:37:19;;;;;;;24.85;11.18;;;;;;;17.33;100.00;99944.75;4264670;33;20037;-84
2022/10/17 07:39:46;;;;;;;19.40;11.10;;;;;;;17.97;100.00;99967.03;4264255;33;20063;-85
2022/10/17 07:42:13;;;;;;;21.37;11.27;;;;;;;17.82;100.00;99956.13;4256942;33;20389;-83
2022/10/17 07:44:40;;;;;;;20.10;11.15;;;;;;;18.11;100.00;99979.00;4256932;33;20058;-84
2022/10/17 07:47:07;;;;;;;29.15;11.27;;;;;;;17.66;100.00;99980.66;4278479;33;20126;-84
2022/10/17 07:49:41;;;;;;;22.67;10.30;;;;;;;18.03;100.00;99960.50;4278136;33;20093;-85
2022/10/17 07:52:14;;;;;;;16.95;10.75;;;;;;;17.92;100.00;99950.72;4258207;33;20078;-84
2022/10/17 07:54:47;;;;;;;19.60;10.98;;;;;;;17.93;100.00;99985.03;4251386;33;20085;-85
2022/10/17 07:57:14;;;;;;;31.77;12.40;;;;;;;18.19;100.00;99988.53;4250743;33;20037;-84
2022/10/17 07:59:40;;;;;;;17.87;10.90;;;;;;;17.96;100.00;99943.59;4249820;33;20042;-85
2022/10/17 08:02:22;;;;;;;24.52;10.68;;;;;;;18.26;100.00;99974.59;4249188;33;20181;-84
2022/10/17 08:04:49;;;;;;;;;;;;;;;18.92;100.00;99997.25;4255936;33;20066;-84
2022/10/17 08:07:15;;;;;;;21.30;10.98;;;;;;;19.12;100.00;99991.66;4254295;33;19945;-85
2022/10/17 08:09:43;;;;;;;22.87;12.50;;;;;;;19.19;100.00;99994.91;4270632;33;20034;-84
2022/10/17 08:12:10;;;;;;;27.83;11.73;;;;;;;18.73;100.00;99916.03;4269462;33;20171;-85
2022/10/17 08:14:38;;;;;;;30.35;12.20;;;;;;;19.05;100.00;99955.66;4270097;33;20110;-82
2022/10/17 08:17:04;;;;;;;20.37;10.50;;;;;;;18.90;100.00;99933.94;4268066;33;20854;-82
2022/10/17 08:19:31;;;;;;;17.62;10.07;;;;;;;19.15;100.00;99961.06;4278255;33;20045;-82
2022/10/17 08:22:04;;;;;;;22.10;10.18;;;;;;;19.19;100.00;99959.41;4275694;33;20033;-82
2022/10/17 08:24:31;;;;;;;25.15;10.07;;;;;;;18.95;100.00;99963.94;4277065;33;20042;-84
2022/10/17 08:26:59;;;;;;;25.62;10.63;;;;;;;19.01;100.00;99962.81;4277365;33;20492;-83
2022/10/17 08:29:26;;;;;;;22.37;11.02;;;;;;;19.29;100.00;99969.44;4278467;33;20411;-83
2022/10/17 08:31:53;;;;;;;22.48;11.27;;;;;;;18.47;100.00;99954.31;4262142;33;20500;-83
2022/10/17 08:34:20;;;;;;;20.85;10.32;;;;;;;18.93;100.00;100001.59;4263186;33;20038;-85
2022/10/17 08:36:46;;;;;;;18.80;10.68;;;;;;;18.71;100.00;99956.41;4262623;33;20055;-83
2022/10/17 08:39:13;;;;;;;19.20;10.43;;;;;;;19.02;100.00;99969.91;4276658;33;20467;-84
2022/10/17 08:42:04;;;;;;;15.07;10.60;;;;;;;19.43;100.00;100005.09;4266499;33;20041;-82
2022/10/17 08:44:59;;;;;;;21.48;11.00;;;;;;;19.58;100.00;99969.47;4261349;33;20174;-83
2022/10/17 08:47:34;;;;;;;21.58;11.12;;;;;;;19.87;100.00;100001.47;4249892;33;20037;-83
2022/10/17 08:50:04;;;;;;;22.67;10.52;;;;;;;19.53;100.00;99991.34;4262898;33;20071;-83
2022/10/17 08:52:39;;;;;;;22.13;10.88;;;;;;;19.76;100.00;99958.94;4263658;33;20038;-81
2022/10/17 08:55:25;;;;;;;26.40;10.23;;;;;;;20.10;100.00;100004.50;4263930;33;20054;-82
2022/10/17 08:57:52;;;;;;;23.48;11.15;;;;;;;19.97;100.00;99962.28;4263977;33;20856;-83
2022/10/17 09:00:20;;;;;;;36.72;11.10;;;;;;;20.23;100.00;100001.12;4263598;33;20037;-82
2022/10/17 09:03:04;;;;;;;23.15;10.80;;;;;;;20.42;100.00;100006.66;4275263;33;20053;-83
2022/10/17 09:05:46;;;;;;;18.90;10.02;;;;;;;20.45;100.00;99999.75;4283033;33;20100;-82
2022/10/17 09:08:21;;;;;;;18.25;11.02;;;;;;;20.33;100.00;99998.25;4278407;33;20041;-82
2022/10/17 09:11:10;;;;;;;16.08;9.80;;;;;;;20.77;100.00;99995.56;4282543;33;20068;-83
2022/10/17 09:13:53;;;;;;;25.67;10.00;;;;;;;20.46;100.00;99985.78;4291462;33;20537;-83
2022/10/17 09:16:22;;;;;;;22.55;11.50;;;;;;;20.53;100.00;99990.09;4289403;33;20063;-84
2022/10/17 09:19:09;;;;;;;26.17;10.05;;;;;;;20.45;100.00;99986.88;4292694;33;20075;-82
2022/10/17 09:21:54;;;;;;;22.75;12.32;;;;;;;20.76;100.00;99982.97;4294927;33;20055;-83
2022/10/17 09:25:02;;;;;;;14.57;10.10;;;;;;;20.28;100.00;99957.28;4286425;33;20052;-83
2022/10/17 09:27:43;;;;;;;15.73;9.77;;;;;;;20.54;100.00;99978.84;4291173;33;20048;-84
2022/10/17 09:30:20;;;;;;;22.20;10.15;;;;;;;20.72;100.00;99943.62;4293573;33;20063;-84
2022/10/17 09:32:49;;;;;;;22.45;10.20;;;;;;;20.60;100.00;99974.12;4294513;33;20037;-84
2022/10/17 09:35:17;;;;;;;15.20;10.25;;;;;;;20.66;100.00;99946.44;4293300;33;20025;-85
2022/10/17 09:37:44;;;;;;;20.25;11.70;;;;;;;20.58;100.00;99949.81;4283991;33;20805;-84
2022/10/17 09:40:23;;;;;;;17.20;10.70;;;;;;;21.39;100.00;99990.81;4295594;33;20063;-84
2022/10/17 09:42:50;;;;;;;29.67;11.60;;;;;;;21.60;100.00;99979.53;4309119;33;20075;-83
2022/10/17 09:45:23;;;;;;;20.42;11.63;;;;;;;21.87;100.00;99983.47;4307434;33;20414;-84
2022/10/17 09:48:03;;;;;;;23.83;10.98;;;;;;;22.05;100.00;99990.81;4308053;33;20923;-83
2022/10/17 09:50:31;;;;;;;23.70;11.77;;;;;;;21.61;100.00;99985.84;4295405;33;20103;-82
2022/10/17 09:53:11;;;;;;;16.10;10.38;;;;;;;21.65;100.00;99986.84;4293625;33;20049;-86
2022/10/17 09:55:47;;;;;;;17.50;9.50;;;;;;;21.90;100.00;99960.94;4252571;33;20042;-83
2022/10/17 09:58:14;;;;;;;23.55;11.68;;;;;;;21.49;100.00;99994.53;4263047;33;20059;-83
2022/10/17 10:00:43;;;;;;;17.98;11.00;;;;;;;21.67;100.00;99941.59;4271591;33;20042;-84
2022/10/17 10:03:23;;;;;;;30.77;11.05;;;;;;;22.16;100.00;99990.59;4251931;33;20066;-83
2022/10/17 10:06:00;;;;;;;24.27;11.32;;;;;;;21.99;100.00;99947.34;4250487;33;20096;-83
2022/10/17 10:08:36;;;;;;;19.55;10.98;;;;;;;22.11;100.00;99950.38;4249113;33;20083;-85
2022/10/17 10:11:09;;;;;;;28.35;11.38;;;;;;;22.55;100.00;99981.91;4244754;33;20077;-84
2022/10/17 10:13:37;;;;;;;18.45;9.93;;;;;;;22.41;100.00;99986.59;4251484;33;20107;-83
2022/10/17 10:16:14;;;;;;;22.45;10.15;;;;;;;21.97;100.00;99938.59;4237694;33;20043;-84
2022/10/17 10:18:41;;;;;;;21.25;10.73;;;;;;;22.05;100.00;99935.97;4264688;33;20185;-82
2022/10/17 10:21:20;;;;;;;16.37;9.50;;;;;;;22.58;100.00;99964.81;4266096;33;20052;-82
2022/10/17 10:24:02;;;;;;;20.90;10.45;;;;;;;22.76;100.00;99982.25;4266111;33;20050;-83
2022/10/17 10:26:37;;;;;;;22.17;10.02;;;;;;;22.76;100.00;99971.28;4266472;33;21057;-82
2022/10/17 10:29:20;;;;;;;25.20;10.75;;;;;;;22.84;100.00;99981.53;4266841;33;20074;-84
2022/10/17 10:31:46;;;;;;;;;;;;;;;22.93;100.00;99980.78;4263218;33;20486;-83
2022/10/17 10:34:26;;;;;;;14.45;10.55;;;;;;;23.58;100.00;99974.06;4266870;33;20908;-83
2022/10/17 10:36:55;;;;;;;16.87;10.00;;;;;;;22.38;100.00;99938.59;4272945;33;20091;-82
2022/10/17 10:39:26;;;;;;;14.63;9.30;;;;;;;22.25;100.00;99947.63;4280372;33;20089;-86
2022/10/17 10:41:53;;;;;;;20.10;9.88;;;;;;;23.14;100.00;99973.75;4281117;33;20098;-83
2022/10/17 10:44:24;;;;;;;16.17;9.60;;;;;;;22.91;100.00;99972.06;4282215;33;20037;-83
2022/10/17 10:47:14;;;;;;;16.00;9.35;;;;;;;22.48;100.00;99949.38;4280927;33;20037;-84
2022/10/17 10:49:42;;;;;;;13.82;9.65;;;;;;;22.93;100.00;99943.19;4280437;33;20377;-83
2022/10/17 10:52:17;;;;;;;17.48;9.75;;;;;;;22.73;100.00;99949.13;4267943;33;20357;-82
2022/10/17 10:54:56;;;;;;;16.77;9.40;;;;;;;23.29;100.00;99906.62;4264830;33;20048;-83
2022/10/17 10:57:28;;;;;;;20.15;9.73;;;;;;;23.79;100.00;99954.28;4263701;33;20076;-81
2022/10/17 11:00:08;;;;;;;22.65;9.70;;;;;;;23.44;100.00;99946.66;4241841;33;20225;-84
2022/10/17 11:02:46;;;;;;;28.17;10.75;;;;;;;24.14;100.00;99980.06;4241814;33;20043;-87
2022/10/17 11:05:39;;;;;;;16.50;9.15;;;;;;;24.12;100.00;99982.28;4262195;33;20192;-86
2022/10/17 11:08:16;;;;;;;22.83;8.52;;;;;;;24.35;100.00;99984.97;4263422;33;20069;-90
2022/10/17 11:11:00;;;;;;;15.60;10.15;;;;;;;25.38;96.17;99989.06;4266198;33;20038;-86
2022/10/17 11:13:43;;;;;;;15.10;9.57;;;;;;;24.19;100.00;99977.16;4257478;33;20050;-89
2022/10/17 11:16:36;;;;;;;11.98;9.18;;;;;;;24.22;100.00;99975.69;4273682;33;20033;-88
2022/10/17 11:19:15;;;;;;;13.62;9.35;;;;;;;25.09;100.00;99973.13;4276563;33;20197;-87
2022/10/17 11:22:04;;;;;;;14.32;9.80;;;;;;;24.64;98.76;99943.94;4266111;33;20380;-86
2022/10/17 11:25:02;;;;;;;17.77;8.50;;;;;;;23.47;100.00;99939.72;4264555;33;20400;-90
2022/10/17 11:27:29;;;;;;;22.85;9.85;;;;;;;24.33;100.00;99937.69;4221066;33;20414;-87
2022/10/17 11:29:57;;;;;;;24.42;10.25;;;;;;;23.96;100.00;99973.66;4260489;33;20038;-86
2022/10/17 11:32:35;;;;;;;15.48;9.15;;;;;;;24.15;100.00;99928.59;4290931;33;20420;-91
2022/10/17 11:35:15;;;;;;;18.40;9.57;;;;;;;24.66;100.00;99963.69;4280030;33;20058;-87
2022/10/17 11:37:50;;;;;;;14.57;9.98;;;;;;;23.29;100.00;99933.28;4251063;33;20077;-85